Time;durP1;ratioP1;P1;durP2;ratioP2;P2;SDS_P1;SDS_P2;PMS_P1;PMS_P2;Temp;Humidity;BMP_temperature;BMP_pressure;BME280_temperature;BME280_humidity;BME280_pressure;Samples;Min_cycle;Max_cycle;Signal;HPM_P1;HPM_P2
2021/12/25 00:00:19;;;;;;;23.10;11.70;;;;;;;3.96;87.46;94204.41;4987667;28;20191;-60
2021/12/25 00:02:46;;;;;;;24.40;11.97;;;;;;;3.22;92.13;94210.06;4988914;28;20188;-61
2021/12/25 00:05:13;;;;;;;17.83;10.27;;;;;;;3.53;92.27;94225.69;4988796;28;20671;-63
2021/12/25 00:07:38;;;;;;;19.73;9.90;;;;;;;3.75;90.48;94231.75;4989309;28;20642;-61
2021/12/25 00:10:07;;;;;;;15.87;9.57;;;;;;;3.89;89.25;94233.34;4988811;28;20246;-63
2021/12/25 00:12:32;;;;;;;16.63;9.53;;;;;;;3.98;88.86;94231.03;4989046;28;20215;-62
2021/12/25 00:14:59;;;;;;;17.10;9.53;;;;;;;4.01;88.35;94238.38;4988794;28;20184;-59
2021/12/25 00:17:26;;;;;;;15.13;9.13;;;;;;;3.91;89.53;94229.84;4989162;28;20204;-58
2021/12/25 00:19:53;;;;;;;15.07;9.50;;;;;;;3.61;91.38;94228.50;4989045;28;20579;-60
2021/12/25 00:22:21;;;;;;;13.23;7.57;;;;;;;4.01;89.14;94260.19;4992209;28;20196;-60
2021/12/25 00:24:47;;;;;;;16.23;8.33;;;;;;;4.24;87.39;94264.53;4992239;28;20187;-61
2021/12/25 00:34:48;;;;;;;13.23;7.63;;;;;;;3.51;93.56;94243.38;4991957;28;20187;-61
2021/12/25 00:37:14;;;;;;;14.20;7.53;;;;;;;4.05;89.05;94254.06;4992212;28;20235;-64
2021/12/25 00:39:39;;;;;;;13.87;7.23;;;;;;;4.11;89.00;94258.69;4991880;28;20628;-63
2021/12/25 00:42:06;;;;;;;11.97;6.60;;;;;;;4.20;88.31;94261.38;4992107;28;20204;-62
2021/12/25 00:44:33;;;;;;;10.50;6.43;;;;;;;4.39;88.34;94280.28;4992053;28;20165;-62
2021/12/25 00:46:59;;;;;;;9.60;6.30;;;;;;;4.40;87.08;94280.22;4992145;28;20253;-63
2021/12/25 00:49:25;;;;;;;13.07;7.07;;;;;;;4.49;86.17;94292.16;4991983;28;20188;-61
2021/12/25 00:51:51;;;;;;;10.83;6.67;;;;;;;4.13;88.53;94266.94;4991822;28;20825;-62
2021/12/25 00:54:17;;;;;;;15.07;7.83;;;;;;;3.87;89.70;94237.66;4991838;28;20225;-61
2021/12/25 00:56:43;;;;;;;12.00;6.53;;;;;;;4.05;89.72;94244.81;4991960;28;20256;-61
2021/12/25 00:59:08;;;;;;;12.17;6.83;;;;;;;3.61;91.55;94246.09;4991604;28;20235;-62
2021/12/25 01:01:35;;;;;;;11.70;6.80;;;;;;;3.46;94.64;94244.56;4991907;28;20211;-63
2021/12/25 01:04:01;;;;;;;11.63;6.47;;;;;;;3.82;91.71;94242.19;4990218;28;20196;-62
2021/12/25 01:06:26;;;;;;;11.23;6.30;;;;;;;3.96;92.88;94234.56;4991697;28;20195;-61
2021/12/25 01:08:52;;;;;;;11.10;6.30;;;;;;;4.31;90.33;94250.63;4991531;28;20215;-61
2021/12/25 01:11:17;;;;;;;11.37;6.50;;;;;;;4.47;88.16;94271.31;4991743;28;20680;-62
2021/12/25 01:13:50;;;;;;;12.23;6.40;;;;;;;4.48;88.43;94272.94;4973869;28;20212;-61
2021/12/25 01:29:49;;;;;;;13.07;6.33;;;;;;;4.68;86.40;94247.25;4991266;28;20314;-61
2021/12/25 01:32:53;;;;;;;10.00;6.20;;;;;;;4.85;85.30;94259.47;4989688;28;20759;-63
2021/12/25 01:48:34;;;;;;;14.47;5.97;;;;;;;4.68;86.87;94249.75;4991104;28;20267;-59
2021/12/25 01:51:00;;;;;;;11.10;5.83;;;;;;;4.90;84.52;94284.31;4991068;28;20314;-62
2021/12/25 01:53:25;;;;;;;10.20;6.50;;;;;;;4.97;84.06;94278.75;4990794;28;20290;-60
2021/12/25 01:55:51;;;;;;;15.03;7.40;;;;;;;5.06;83.65;94265.53;5007996;22;20202;-63
2021/12/25 01:58:17;;;;;;;8.73;6.00;;;;;;;4.90;84.20;94266.69;5093466;28;20184;-61
2021/12/25 02:00:46;;;;;;;8.93;5.77;;;;;;;4.14;88.69;94213.22;5093155;28;20570;-63
2021/12/25 02:03:14;;;;;;;13.13;6.27;;;;;;;4.28;88.53;94246.59;5093356;28;20187;-61
2021/12/25 02:05:40;;;;;;;10.30;5.93;;;;;;;4.51;87.08;94229.94;5093314;28;20202;-61
2021/12/25 02:08:06;;;;;;;8.63;5.13;;;;;;;4.50;87.26;94225.84;5093204;28;20186;-61
2021/12/25 02:10:32;;;;;;;9.13;5.23;;;;;;;4.41;88.30;94205.50;5092905;28;20192;-62
2021/12/25 02:12:57;;;;;;;8.53;5.67;;;;;;;4.28;89.23;94205.56;5093241;28;20266;-60
2021/12/25 02:15:26;;;;;;;9.67;5.87;;;;;;;4.53;88.39;94229.84;5091464;28;20563;-62
2021/12/25 02:20:35;;;;;;;9.50;5.73;;;;;;;4.48;88.26;94207.53;5091915;28;20693;-62
2021/12/25 02:23:10;;;;;;;9.83;6.00;;;;;;;4.75;85.97;94230.78;5092923;28;20536;-59
2021/12/25 02:25:36;;;;;;;9.00;5.53;;;;;;;4.68;86.34;94218.75;5092774;28;20198;-62
2021/12/25 02:28:04;;;;;;;9.53;5.07;;;;;;;4.31;89.21;94184.41;5092555;28;20214;-60
2021/12/25 02:30:30;;;;;;;11.03;5.87;;;;;;;4.39;89.30;94203.09;5091192;28;20606;-61
2021/12/25 02:32:58;;;;;;;10.23;5.83;;;;;;;4.58;88.16;94205.19;5092467;28;20208;-62
2021/12/25 02:35:25;;;;;;;8.93;5.53;;;;;;;4.54;88.32;94194.53;5091053;28;20258;-60
2021/12/25 02:37:51;;;;;;;10.50;5.43;;;;;;;4.25;91.16;94188.97;5092431;28;20192;-63
2021/12/25 02:40:16;;;;;;;6.40;5.17;;;;;;;4.49;91.11;94204.09;5090930;28;20234;-62
2021/12/25 02:42:42;;;;;;;8.27;5.30;;;;;;;4.79;87.17;94224.63;5092120;28;20181;-63
2021/12/25 02:45:15;;;;;;;8.87;5.43;;;;;;;4.72;88.17;94215.91;5091033;28;20176;-60
2021/12/25 02:47:43;;;;;;;9.13;5.37;;;;;;;4.57;89.15;94198.53;5092263;28;20644;-60
2021/12/25 02:50:09;;;;;;;12.43;5.13;;;;;;;4.91;86.52;94238.88;5090983;28;20183;-61
2021/12/25 02:52:35;;;;;;;8.67;5.27;;;;;;;4.83;86.81;94233.56;5092189;28;20597;-59
2021/12/25 02:55:01;;;;;;;6.10;5.03;;;;;;;4.95;85.89;94237.75;5092376;28;20206;-61
2021/12/25 02:57:33;;;;;;;9.93;5.20;;;;;;;4.73;87.83;94201.59;5091926;28;20290;-59
2021/12/25 03:00:08;;;;;;;10.57;5.03;;;;;;;4.96;86.49;94228.50;5092137;28;20586;-61
2021/12/25 03:02:35;;;;;;;9.90;4.87;;;;;;;5.14;85.43;94234.75;5091967;28;20218;-61
2021/12/25 03:05:01;;;;;;;7.13;5.00;;;;;;;5.11;84.56;94234.97;5092097;28;20187;-61
2021/12/25 03:07:27;;;;;;;7.00;4.07;;;;;;;5.08;85.51;94233.50;5092380;28;20257;-61
2021/12/25 03:09:52;;;;;;;7.30;4.57;;;;;;;5.12;85.57;94239.09;5091998;28;20262;-62
2021/12/25 03:12:27;;;;;;;7.77;4.40;;;;;;;5.26;84.72;94240.66;5092180;28;20211;-61
2021/12/25 03:15:06;;;;;;;8.63;4.50;;;;;;;5.30;84.31;94239.53;5091845;28;20168;-61
2021/12/25 03:17:34;;;;;;;7.83;4.70;;;;;;;5.51;83.04;94258.16;5090630;28;20230;-60
2021/12/25 03:20:00;;;;;;;7.70;4.03;;;;;;;5.38;83.72;94229.69;5091895;28;20184;-60
2021/12/25 03:22:26;;;;;;;7.50;4.20;;;;;;;5.52;82.63;94252.19;5090613;28;20718;-63
2021/12/25 03:24:51;;;;;;;7.20;4.27;;;;;;;5.34;84.57;94223.28;5090493;28;20184;-63
2021/12/25 03:27:17;;;;;;;7.07;4.53;;;;;;;5.30;85.58;94229.44;5091919;28;20198;-59
2021/12/25 03:29:43;;;;;;;6.97;4.10;;;;;;;5.48;83.48;94255.84;5091683;28;20191;-61
2021/12/25 03:32:10;;;;;;;7.87;4.50;;;;;;;5.23;85.62;94224.06;5091820;28;20215;-63
2021/12/25 03:34:36;;;;;;;7.57;4.30;;;;;;;5.54;83.28;94258.75;5091738;28;20219;-61
2021/12/25 03:37:02;;;;;;;9.63;4.60;;;;;;;5.36;84.13;94236.56;5092008;28;20238;-63
2021/12/25 03:39:28;;;;;;;10.10;4.53;;;;;;;5.39;84.04;94241.41;5091679;28;20537;-60
2021/12/25 03:41:57;;;;;;;7.73;4.50;;;;;;;5.22;85.38;94226.66;5091972;28;20255;-61
2021/12/25 03:44:23;;;;;;;8.17;4.93;;;;;;;4.74;87.54;94198.97;5091556;28;20239;-61
2021/12/25 03:46:48;;;;;;;7.97;4.70;;;;;;;5.18;85.22;94233.63;5091607;28;20203;-63
2021/12/25 03:49:26;;;;;;;11.77;4.93;;;;;;;5.16;84.58;94247.25;5091563;28;20184;-60
2021/12/25 04:00:07;;;;;;;8.00;5.47;;;;;;;5.16;85.40;94224.56;5094726;28;20671;-61
2021/12/25 04:02:37;;;;;;;8.50;4.73;;;;;;;5.26;85.26;94228.88;5095916;28;20209;-61
2021/12/25 04:05:06;;;;;;;10.80;5.17;;;;;;;5.26;85.67;94217.97;5078431;28;20206;-61
2021/12/25 04:10:09;;;;;;;8.47;5.13;;;;;;;4.95;87.05;94219.31;5095668;28;20173;-61
2021/12/25 04:12:35;;;;;;;8.43;4.67;;;;;;;5.37;84.82;94259.16;5095222;28;20213;-61
2021/12/25 04:15:01;;;;;;;8.80;5.43;;;;;;;5.34;84.23;94258.56;5095285;28;20197;-61
2021/12/25 04:17:26;;;;;;;10.00;5.70;;;;;;;4.99;87.51;94216.50;5095661;28;20285;-61
2021/12/25 04:19:52;;;;;;;9.07;4.90;;;;;;;5.13;86.69;94225.59;5094202;28;20182;-63
2021/12/25 04:22:25;;;;;;;10.30;5.57;;;;;;;5.33;84.25;94246.88;5095485;28;20211;-59
2021/12/25 04:24:52;;;;;;;12.13;6.03;;;;;;;5.08;85.72;94222.59;5095091;28;20166;-59
2021/12/25 04:27:18;;;;;;;9.07;5.60;;;;;;;5.04;86.51;94224.53;5094034;28;20219;-63
2021/12/25 04:29:49;;;;;;;7.83;5.23;;;;;;;5.23;84.62;94253.47;5094855;28;20187;-60
2021/12/25 04:47:50;;;;;;;9.37;5.80;;;;;;;5.36;85.04;94246.66;4992069;28;20698;-59
2021/12/25 05:01:54;;;;;;;9.53;5.73;;;;;;;5.36;84.29;94285.25;4991950;28;20305;-60
2021/12/25 05:04:29;;;;;;;11.30;6.27;;;;;;;5.56;83.24;94309.84;4992223;28;20187;-64
2021/12/25 05:06:54;;;;;;;11.23;6.57;;;;;;;5.46;83.45;94295.47;4989676;28;20217;-62
2021/12/25 05:09:20;;;;;;;7.83;5.77;;;;;;;5.40;83.61;94293.41;4991847;28;20183;-60
2021/12/25 05:11:46;;;;;;;11.60;6.33;;;;;;;5.26;84.99;94261.63;4990046;28;20209;-61
2021/12/25 05:14:11;;;;;;;11.07;6.50;;;;;;;5.32;85.91;94265.41;4991798;28;20225;-61
2021/12/25 05:16:37;;;;;;;10.63;6.10;;;;;;;5.48;83.48;94291.94;4989573;28;20344;-59
2021/12/25 05:19:03;;;;;;;8.40;5.70;;;;;;;5.30;84.02;94278.13;4991354;28;20193;-60
2021/12/25 05:21:28;;;;;;;10.30;5.50;;;;;;;5.18;85.32;94258.84;4991361;28;20198;-61
2021/12/25 05:23:54;;;;;;;8.63;4.80;;;;;;;5.13;86.45;94250.00;4991679;28;20194;-60
2021/12/25 05:26:19;;;;;;;7.90;4.87;;;;;;;5.21;85.76;94263.66;4991181;28;20195;-59
2021/12/25 05:28:52;;;;;;;8.50;4.93;;;;;;;5.40;84.39;94284.13;4991527;28;20435;-59
2021/12/25 05:31:17;;;;;;;10.97;5.67;;;;;;;5.52;83.84;94307.66;4990146;28;20215;-59
2021/12/25 05:33:43;;;;;;;7.97;4.43;;;;;;;5.42;84.39;94296.63;4991408;28;20221;-63
2021/12/25 05:36:09;;;;;;;6.87;4.63;;;;;;;5.65;83.03;94308.41;4991227;28;20201;-62
2021/12/25 05:38:35;;;;;;;7.20;4.37;;;;;;;5.53;82.97;94302.53;4991351;28;20192;-60
2021/12/25 05:41:02;;;;;;;8.40;4.93;;;;;;;5.35;84.02;94271.06;4991055;28;20205;-59
2021/12/25 05:43:27;;;;;;;8.10;4.60;;;;;;;5.35;84.26;94285.38;4991051;28;20193;-60
2021/12/25 05:45:53;;;;;;;8.33;4.53;;;;;;;5.34;85.21;94268.63;4991029;28;20247;-61
2021/12/25 05:48:19;;;;;;;7.40;4.80;;;;;;;5.26;86.37;94260.81;4991106;28;20190;-61
2021/12/25 05:50:45;;;;;;;7.67;4.17;;;;;;;5.38;86.62;94270.81;4990942;28;20202;-61
2021/12/25 05:53:10;;;;;;;9.93;5.37;;;;;;;5.55;85.65;94287.28;4990931;28;20775;-61
2021/12/25 05:55:36;;;;;;;7.20;4.77;;;;;;;5.63;85.39;94290.06;4990802;28;20694;-62
2021/12/25 05:58:04;;;;;;;6.77;4.10;;;;;;;5.83;82.99;94342.41;4988660;28;20277;-60
2021/12/25 06:00:31;;;;;;;7.37;4.20;;;;;;;6.01;82.36;94353.72;4990352;28;20178;-61
2021/12/25 06:02:57;;;;;;;6.10;4.10;;;;;;;5.99;82.01;94354.75;4990950;28;20275;-61
2021/12/25 06:05:24;;;;;;;6.63;4.40;;;;;;;5.90;83.47;94334.31;4990779;28;20194;-59
2021/12/25 06:07:50;;;;;;;8.07;4.80;;;;;;;5.99;83.93;94337.09;4990498;28;20183;-62
2021/12/25 06:10:15;;;;;;;8.37;4.40;;;;;;;6.05;82.40;94339.97;4990324;28;20274;-60
2021/12/25 06:12:43;;;;;;;7.50;4.93;;;;;;;6.23;80.85;94365.59;4990592;28;20284;-59
2021/12/25 06:15:14;;;;;;;6.40;3.40;;;;;;;6.20;81.62;94333.81;4990708;28;20270;-64
2021/12/25 06:17:41;;;;;;;7.00;4.40;;;;;;;6.34;82.60;94322.72;4989089;28;20252;-62
2021/12/25 06:20:07;;;;;;;5.60;3.57;;;;;;;6.34;81.36;94348.75;4989091;28;20186;-61
2021/12/25 06:22:33;;;;;;;7.27;4.47;;;;;;;6.35;81.54;94349.56;4990273;28;20287;-60
2021/12/25 06:24:59;;;;;;;6.63;4.13;;;;;;;6.60;79.94;94374.63;4990675;28;20264;-60
2021/12/25 06:27:24;;;;;;;5.97;3.70;;;;;;;6.57;78.52;94383.22;4988990;28;20587;-63
2021/12/25 06:29:51;;;;;;;5.90;3.77;;;;;;;6.48;79.13;94370.47;4990338;28;20178;-61
2021/12/25 06:32:17;;;;;;;5.20;3.87;;;;;;;6.45;79.31;94363.91;4989593;28;20635;-64
2021/12/25 06:34:44;;;;;;;6.27;3.87;;;;;;;6.40;79.28;94363.44;4990961;28;20258;-61
2021/12/25 06:37:10;;;;;;;7.87;3.77;;;;;;;6.35;80.14;94352.06;4989856;28;20207;-62
2021/12/25 06:39:36;;;;;;;3.63;3.13;;;;;;;6.52;79.31;94376.91;4990249;28;20278;-60
2021/12/25 06:42:02;;;;;;;4.80;3.60;;;;;;;6.48;79.06;94365.44;4995384;23;20353;-63
2021/12/25 06:44:28;;;;;;;18.00;3.87;;;;;;;6.49;79.17;94367.81;4990159;28;20221;-62
2021/12/25 06:46:54;;;;;;;7.13;3.67;;;;;;;6.41;79.16;94362.53;4990332;28;20324;-64
2021/12/25 06:49:21;;;;;;;5.80;3.77;;;;;;;6.32;80.00;94355.63;4989783;28;20486;-64
2021/12/25 06:51:47;;;;;;;8.23;4.27;;;;;;;6.32;80.56;94355.63;4989830;28;20211;-63
2021/12/25 06:54:13;;;;;;;6.57;3.80;;;;;;;6.36;80.66;94363.78;4989841;28;20207;-60
2021/12/25 06:56:40;;;;;;;9.70;4.70;;;;;;;6.39;80.68;94369.41;4989602;28;20217;-61
2021/12/25 06:59:05;;;;;;;6.23;4.10;;;;;;;6.49;80.36;94369.53;4989773;28;20198;-60
2021/12/25 07:01:31;;;;;;;6.93;4.50;;;;;;;6.61;80.00;94377.03;4989790;28;20578;-61
2021/12/25 07:03:57;;;;;;;5.73;3.57;;;;;;;6.71;78.11;94408.25;4989743;28;20268;-61
2021/12/25 07:06:22;;;;;;;7.53;3.80;;;;;;;6.32;80.92;94353.09;4989893;28;20219;-60
2021/12/25 07:08:49;;;;;;;8.27;4.13;;;;;;;6.03;82.51;94335.94;4989886;28;20183;-64
2021/12/25 07:11:15;;;;;;;8.23;5.03;;;;;;;6.46;80.75;94385.75;4989695;28;20236;-62
2021/12/25 07:13:45;;;;;;;11.17;4.47;;;;;;;6.37;80.20;94386.41;4989428;28;20594;-59
2021/12/25 07:16:11;;;;;;;8.90;6.03;;;;;;;6.37;80.98;94378.00;5058422;22;20227;-60
2021/12/25 07:18:37;;;;;;;13.43;5.77;;;;;;;6.58;79.99;94394.13;5091670;28;20631;-63
2021/12/25 07:21:04;;;;;;;9.40;5.43;;;;;;;6.66;79.44;94402.75;5092069;28;20312;-60
2021/12/25 07:23:30;;;;;;;8.90;5.47;;;;;;;6.67;80.96;94383.34;5091701;28;20722;-59
2021/12/25 07:25:55;;;;;;;9.20;5.43;;;;;;;6.89;78.64;94415.41;5092130;28;20307;-63
2021/12/25 07:28:21;;;;;;;7.77;5.03;;;;;;;6.78;78.39;94409.44;5091794;28;20180;-64
2021/12/25 07:30:50;;;;;;;7.00;4.97;;;;;;;6.79;78.19;94407.69;5091728;28;20218;-62
2021/12/25 07:33:16;;;;;;;7.80;5.30;;;;;;;6.62;79.19;94388.75;5091407;28;20268;-62
2021/12/25 07:35:41;;;;;;;6.37;4.60;;;;;;;6.71;96.86;94316.53;5091489;28;20238;-61
2021/12/25 07:38:07;;;;;;;7.73;5.03;;;;;;;6.94;82.73;94393.13;5091569;28;20244;-61
2021/12/25 07:40:32;;;;;;;10.50;5.30;;;;;;;6.88;81.95;94401.16;5091832;28;20208;-62
2021/12/25 07:42:58;;;;;;;11.13;5.17;;;;;;;7.10;79.31;94441.59;5091473;28;20271;-61
2021/12/25 07:45:23;;;;;;;6.43;4.93;;;;;;;7.32;96.99;94343.81;5073509;28;20275;-61
2021/12/25 07:47:57;;;;;;;8.70;5.47;;;;;;;7.53;78.61;94472.84;5091672;28;20706;-63
2021/12/25 07:50:23;;;;;;;10.73;5.63;;;;;;;7.24;79.07;94436.31;5091698;28;20180;-60
2021/12/25 07:52:49;;;;;;;10.63;5.43;;;;;;;7.28;77.97;94445.28;5091430;28;20215;-63
2021/12/25 07:55:15;;;;;;;10.17;5.93;;;;;;;7.39;77.18;94456.19;5091706;28;20210;-62
2021/12/25 07:57:40;;;;;;;11.47;6.67;;;;;;;7.37;77.63;94429.41;5091643;28;20180;-61
2021/12/25 08:00:09;;;;;;;12.47;6.60;;;;;;;7.33;77.65;94436.41;5091428;28;20208;-60
2021/12/25 08:02:34;;;;;;;10.87;5.87;;;;;;;7.28;78.01;94427.56;5091273;28;20260;-61
2021/12/25 08:05:00;;;;;;;11.63;6.40;;;;;;;7.38;76.80;94448.72;5091541;28;20184;-59
2021/12/25 08:07:25;;;;;;;15.03;8.23;;;;;;;7.37;77.35;94435.25;5091614;28;20278;-62
2021/12/25 08:09:56;;;;;;;11.20;7.10;;;;;;;6.98;79.96;94405.41;5090018;28;20204;-61
2021/12/25 08:12:21;;;;;;;12.60;6.17;;;;;;;7.45;77.61;94445.59;5073797;28;20513;-62
2021/12/25 08:14:47;;;;;;;13.03;7.43;;;;;;;7.55;77.34;94430.56;5091333;28;20549;-61
2021/12/25 08:17:12;;;;;;;14.17;6.77;;;;;;;7.90;76.92;94453.94;5091336;28;20219;-62
2021/12/25 08:19:38;;;;;;;12.57;6.77;;;;;;;8.33;73.29;94504.59;5091302;28;20191;-62
2021/12/25 08:22:04;;;;;;;10.43;6.97;;;;;;;8.49;71.82;94520.19;5089792;28;20200;-59
2021/12/25 08:24:29;;;;;;;9.70;6.10;;;;;;;8.79;70.56;94532.97;5091124;28;20653;-62
2021/12/25 08:26:57;;;;;;;10.67;6.77;;;;;;;8.90;71.48;94512.66;5073008;28;20208;-61
2021/12/25 08:29:23;;;;;;;9.97;5.57;;;;;;;9.25;69.68;94540.22;5090062;28;20180;-63
2021/12/25 08:31:49;;;;;;;9.63;5.87;;;;;;;9.36;68.99;94536.78;5090830;28;20200;-59
2021/12/25 08:34:14;;;;;;;7.63;5.03;;;;;;;9.57;67.79;94555.34;5090706;28;20219;-62
2021/12/25 08:36:40;;;;;;;6.63;4.63;;;;;;;9.28;68.00;94530.63;5091121;28;20203;-63
2021/12/25 08:39:06;;;;;;;9.93;5.60;;;;;;;9.42;68.04;94537.09;5089235;28;20173;-59
2021/12/25 08:41:32;;;;;;;9.80;6.07;;;;;;;9.36;67.54;94522.38;5089906;28;20211;-62
2021/12/25 08:44:05;;;;;;;7.80;5.13;;;;;;;9.88;66.38;94567.91;5092272;28;20180;-59
2021/12/25 08:46:45;;;;;;;8.00;4.83;;;;;;;10.31;64.97;94582.09;5092970;28;20204;-62
2021/12/25 08:49:16;;;;;;;9.27;5.37;;;;;;;9.94;64.35;94561.50;5091861;28;20272;-61
2021/12/25 08:51:43;;;;;;;8.40;5.70;;;;;;;9.94;66.02;94534.38;5094909;28;20207;-61
2021/12/25 08:54:11;;;;;;;13.03;5.50;;;;;;;10.18;65.23;94545.97;5093157;28;20712;-63
2021/12/25 08:56:37;;;;;;;8.50;5.47;;;;;;;10.05;63.87;94554.59;5094413;28;20199;-62
2021/12/25 08:59:03;;;;;;;8.50;5.07;;;;;;;10.07;64.27;94536.69;5094361;28;20177;-59
2021/12/25 09:01:28;;;;;;;7.60;5.10;;;;;;;10.07;63.89;94529.88;5094784;28;20200;-61
2021/12/25 09:03:55;;;;;;;9.03;5.30;;;;;;;9.99;64.52;94524.66;5094523;28;20180;-62
2021/12/25 09:06:20;;;;;;;11.20;5.37;;;;;;;10.30;63.78;94532.22;5094668;28;20215;-62
2021/12/25 09:08:46;;;;;;;12.50;6.03;;;;;;;10.79;62.87;94548.19;5094230;28;20188;-61
2021/12/25 09:11:11;;;;;;;8.73;5.60;;;;;;;11.02;61.56;94574.16;5094573;28;20208;-61
2021/12/25 09:13:37;;;;;;;7.80;5.23;;;;;;;11.38;60.19;94591.28;5093961;28;20200;-62
2021/12/25 09:16:03;;;;;;;13.47;5.83;;;;;;;11.47;59.93;94575.16;5094432;28;20586;-62
2021/12/25 09:18:29;;;;;;;13.20;5.43;;;;;;;12.02;58.71;94593.94;5093916;28;20691;-61
2021/12/25 09:20:54;;;;;;;8.93;4.90;;;;;;;12.40;57.99;94598.09;5094029;28;20253;-62
2021/12/25 09:23:20;;;;;;;6.07;4.60;;;;;;;12.56;57.16;94611.78;5094035;28;20638;-62
2021/12/25 09:25:45;;;;;;;7.07;4.53;;;;;;;13.00;55.22;94638.25;5094180;28;20204;-60
2021/12/25 09:28:11;;;;;;;8.53;5.03;;;;;;;12.79;55.75;94598.63;5093823;28;20227;-61
2021/12/25 09:30:36;;;;;;;9.30;5.10;;;;;;;13.25;55.79;94578.84;5093809;28;20670;-62
2021/12/25 09:33:03;;;;;;;12.20;4.97;;;;;;;13.30;54.02;94614.13;5094159;28;20200;-60
2021/12/25 09:35:28;;;;;;;8.30;4.30;;;;;;;12.90;54.52;94589.03;5092236;28;20199;-60
2021/12/25 09:37:54;;;;;;;12.77;4.80;;;;;;;12.64;55.39;94548.13;5093875;28;20172;-62
2021/12/25 09:40:19;;;;;;;9.30;5.40;;;;;;;12.82;55.85;94534.59;5093461;28;20195;-62
2021/12/25 09:42:45;;;;;;;11.83;5.20;;;;;;;12.87;55.62;94540.84;5092142;28;20705;-60
2021/12/25 09:45:12;;;;;;;8.60;5.60;;;;;;;12.49;55.82;94528.38;5093739;28;20680;-60
2021/12/25 09:47:38;;;;;;;7.87;5.57;;;;;;;12.57;56.63;94510.59;5093636;28;20271;-61
2021/12/25 09:50:04;;;;;;;10.50;5.30;;;;;;;12.76;55.20;94530.06;5093288;28;20653;-62
2021/12/25 09:52:30;;;;;;;10.17;6.30;;;;;;;12.13;56.54;94491.03;5092710;28;20207;-59
2021/12/25 09:54:56;;;;;;;9.60;6.40;;;;;;;12.27;57.62;94485.44;5093485;28;20180;-61
2021/12/25 09:57:22;;;;;;;10.27;6.53;;;;;;;12.30;56.86;94477.53;5093565;28;20210;-61
2021/12/25 09:59:48;;;;;;;17.33;7.60;;;;;;;12.41;57.21;94470.47;5093632;28;20181;-62
2021/12/25 10:02:15;;;;;;;14.50;7.40;;;;;;;12.27;57.41;94453.13;5093439;28;20700;-62
2021/12/25 10:04:55;;;;;;;11.67;7.60;;;;;;;12.28;56.86;94474.31;5093500;28;20568;-59
2021/12/25 10:07:28;;;;;;;14.33;7.63;;;;;;;12.47;57.24;94469.06;5093092;28;20241;-60
2021/12/25 10:09:57;;;;;;;13.03;8.33;;;;;;;12.56;57.01;94475.88;5091858;28;20191;-62
2021/12/25 10:12:46;;;;;;;12.67;8.30;;;;;;;12.98;56.28;94493.91;5092996;28;20220;-62
2021/12/25 10:15:15;;;;;;;17.00;9.20;;;;;;;13.45;54.71;94534.28;5092605;28;20672;-62
2021/12/25 10:17:59;;;;;;;17.77;10.20;;;;;;;13.72;54.19;94547.88;5093011;28;20572;-62
2021/12/25 10:20:31;;;;;;;15.50;10.13;;;;;;;14.13;52.57;94577.78;5093166;28;20188;-62
2021/12/25 10:23:08;;;;;;;13.27;9.80;;;;;;;14.30;51.22;94610.19;5091438;28;20259;-62
2021/12/25 10:25:44;;;;;;;17.23;9.93;;;;;;;14.62;50.84;94606.94;5092504;28;20207;-61
2021/12/25 10:28:10;;;;;;;17.20;9.87;;;;;;;14.41;50.40;94583.53;5092543;28;20179;-61
2021/12/25 10:30:59;;;;;;;15.38;9.50;;;;;;;14.44;50.76;94555.09;5092721;28;20330;-65
2021/12/25 10:33:31;;;;;;;17.53;9.73;;;;;;;14.71;50.41;94583.78;5090998;28;20227;-60
2021/12/25 10:36:00;;;;;;;14.47;9.07;;;;;;;14.97;49.47;94594.72;5092877;28;20234;-63
2021/12/25 10:38:27;;;;;;;14.83;8.90;;;;;;;15.27;49.52;94579.69;5092303;28;20172;-63
2021/12/25 10:41:25;;;;;;;13.70;8.77;;;;;;;15.29;48.43;94604.19;5092596;28;20208;-62
2021/12/25 10:43:53;;;;;;;16.80;8.65;;;;;;;15.19;48.77;94579.69;5058381;28;20188;-62
2021/12/25 10:46:20;;;;;;;17.70;9.00;;;;;;;15.39;49.28;94571.50;5091990;28;20290;-61
2021/12/25 10:48:46;;;;;;;14.32;9.68;;;;;;;15.48;48.21;94578.28;5092107;28;20203;-60
2021/12/25 10:51:27;;;;;;;14.50;9.77;;;;;;;15.14;48.71;94557.94;5091978;28;20204;-59
2021/12/25 10:53:54;;;;;;;15.50;10.40;;;;;;;15.06;49.64;94523.84;5092254;28;20196;-61
2021/12/25 10:56:20;;;;;;;15.73;9.45;;;;;;;15.14;48.75;94534.88;5092421;28;20232;-61
2021/12/25 10:58:46;;;;;;;13.95;9.15;;;;;;;15.40;48.85;94527.03;5092393;28;20268;-59
2021/12/25 11:01:14;;;;;;;18.00;9.80;;;;;;;15.75;47.95;94554.88;5092413;28;20583;-63
2021/12/25 11:03:42;;;;;;;13.40;9.23;;;;;;;15.88;47.14;94587.66;5091735;28;20185;-61
2021/12/25 11:06:09;;;;;;;19.55;10.85;;;;;;;15.78;47.23;94566.53;5090270;28;20208;-60
2021/12/25 11:08:37;;;;;;;16.73;9.75;;;;;;;14.73;48.36;94515.34;5091843;28;20183;-60
2021/12/25 11:11:05;;;;;;;13.32;9.35;;;;;;;14.58;50.39;94473.44;5092185;28;20269;-62
2021/12/25 11:13:36;;;;;;;19.13;9.27;;;;;;;14.56;50.15;94472.78;5092074;28;20238;-62
2021/12/25 11:16:31;;;;;;;14.98;8.52;;;;;;;14.42;50.50;94458.06;5091782;28;20215;-63
2021/12/25 11:21:30;;;;;;;13.60;8.63;;;;;;;13.94;51.99;94401.66;5092328;28;20207;-62
2021/12/25 11:24:09;;;;;;;17.73;8.73;;;;;;;13.53;53.23;94376.97;5092032;28;20188;-62
2021/12/25 11:26:35;;;;;;;13.97;7.47;;;;;;;13.60;52.93;94376.19;5091656;28;20206;-63
2021/12/25 11:29:04;;;;;;;15.57;7.00;;;;;;;13.41;53.09;94368.78;5090200;28;20275;-63
2021/12/25 11:31:31;;;;;;;12.43;7.15;;;;;;;13.22;53.62;94357.06;5090301;28;20200;-62
2021/12/25 11:33:57;;;;;;;14.47;6.40;;;;;;;13.00;54.27;94342.25;5073556;28;20208;-61
2021/12/25 11:36:22;;;;;;;14.37;6.80;;;;;;;12.90;55.22;94320.34;5092043;28;20227;-59
2021/12/25 11:38:50;;;;;;;11.10;6.40;;;;;;;12.74;55.42;94299.84;5091658;28;20184;-62
2021/12/25 11:41:17;;;;;;;12.10;6.47;;;;;;;12.77;55.89;94297.00;5090347;28;20203;-62
2021/12/25 11:43:45;;;;;;;9.30;6.13;;;;;;;12.73;55.89;94291.41;5091872;28;20245;-62
2021/12/25 11:46:13;;;;;;;9.30;6.07;;;;;;;12.56;56.72;94271.88;5091898;28;20294;-61
2021/12/25 11:48:39;;;;;;;10.27;6.10;;;;;;;12.57;56.29;94268.38;5091546;28;20644;-62
2021/12/25 11:51:06;;;;;;;13.73;6.50;;;;;;;12.36;57.13;94252.66;5091871;28;20202;-61
2021/12/25 11:58:52;;;;;;;10.73;6.27;;;;;;;12.16;58.15;94241.81;5091477;28;20190;-60
2021/12/25 12:01:26;;;;;;;9.20;5.73;;;;;;;12.02;58.62;94226.31;5091635;28;20592;-63
2021/12/25 12:04:03;;;;;;;11.17;5.83;;;;;;;12.19;58.76;94233.91;5090181;28;20200;-60
2021/12/25 12:06:47;;;;;;;12.93;5.83;;;;;;;12.63;57.91;94265.22;5091763;28;20204;-61
2021/12/25 12:09:17;;;;;;;10.27;5.20;;;;;;;12.51;57.48;94266.41;5089915;28;20185;-62
2021/12/25 12:11:46;;;;;;;7.53;4.97;;;;;;;12.62;57.41;94278.94;5091087;28;20629;-60
2021/12/25 12:14:14;;;;;;;8.13;5.10;;;;;;;12.58;57.35;94278.41;5091006;28;20584;-62
2021/12/25 12:16:46;;;;;;;9.23;5.00;;;;;;;12.47;57.47;94270.22;5093430;28;20211;-60
2021/12/25 12:19:30;;;;;;;12.00;4.93;;;;;;;12.43;57.44;94261.28;5095301;28;20709;-63
2021/12/25 12:21:56;;;;;;;9.30;5.23;;;;;;;12.37;57.84;94244.03;5095244;28;20208;-62
2021/12/25 12:27:03;;;;;;;7.00;4.63;;;;;;;12.34;58.80;94241.78;5095036;28;20204;-62
2021/12/25 12:29:54;;;;;;;10.67;4.83;;;;;;;12.34;58.32;94245.13;5095123;28;20535;-62
2021/12/25 12:32:20;;;;;;;7.93;4.77;;;;;;;12.41;58.18;94255.53;5091883;28;20216;-61
2021/12/25 12:34:47;;;;;;;11.47;6.10;;;;;;;12.51;58.34;94261.31;5093778;28;20545;-62
2021/12/25 12:37:21;;;;;;;9.07;5.37;;;;;;;12.53;57.92;94278.06;5094583;28;20204;-63
2021/12/25 12:39:53;;;;;;;13.00;5.40;;;;;;;12.52;57.18;94290.97;5094642;28;20713;-62
2021/12/25 12:42:19;;;;;;;10.40;5.53;;;;;;;12.46;57.60;94289.03;5094804;28;20232;-62
2021/12/25 12:44:47;;;;;;;11.30;5.43;;;;;;;12.37;57.77;94274.63;5094973;28;20188;-62
2021/12/25 12:47:18;;;;;;;12.67;5.57;;;;;;;12.71;57.28;94297.59;5094596;28;20204;-61
2021/12/25 12:49:49;;;;;;;15.97;6.40;;;;;;;12.57;57.25;94296.41;5093092;28;20626;-61
2021/12/25 12:52:16;;;;;;;15.23;6.80;;;;;;;12.47;56.68;94281.22;5094343;28;20192;-61
2021/12/25 12:54:50;;;;;;;15.03;7.37;;;;;;;12.44;57.60;94271.31;5094460;28;20317;-62
2021/12/25 12:57:23;;;;;;;12.87;6.60;;;;;;;12.57;56.90;94299.78;5094526;28;20246;-61
2021/12/25 12:59:52;;;;;;;11.03;7.23;;;;;;;12.66;57.11;94295.53;5094548;28;20184;-61
2021/12/25 13:02:21;;;;;;;16.43;6.97;;;;;;;12.61;57.11;94302.81;5094109;28;20203;-60